sensor_id;sensor_type;location;lat;lon;timestamp;temperature;humidity
13256;DHT22;37913;48.370;10.930;2022-07-29T00:00:48;23.40;99.90
13256;DHT22;37913;48.370;10.930;2022-07-29T00:03:15;23.40;1.00
13256;DHT22;37913;48.370;10.930;2022-07-29T00:05:43;23.30;15.30
13256;DHT22;37913;48.370;10.930;2022-07-29T00:08:10;23.30;99.90
13256;DHT22;37913;48.370;10.930;2022-07-29T00:10:37;23.20;99.90
13256;DHT22;37913;48.370;10.930;2022-07-29T00:13:04;23.20;99.90
13256;DHT22;37913;48.370;10.930;2022-07-29T00:15:31;23.20;99.90
13256;DHT22;37913;48.370;10.930;2022-07-29T00:17:58;23.20;1.00
13256;DHT22;37913;48.370;10.930;2022-07-29T00:20:25;23.20;1.00
13256;DHT22;37913;48.370;10.930;2022-07-29T00:22:54;23.20;99.90
13256;DHT22;37913;48.370;10.930;2022-07-29T00:25:21;24.50;99.90
13256;DHT22;37913;48.370;10.930;2022-07-29T00:27:47;23.30;1.00
13256;DHT22;37913;48.370;10.930;2022-07-29T00:30:14;23.20;99.90
13256;DHT22;37913;48.370;10.930;2022-07-29T00:32:42;23.20;99.90
13256;DHT22;37913;48.370;10.930;2022-07-29T00:35:09;23.20;1.00
13256;DHT22;37913;48.370;10.930;2022-07-29T00:37:54;23.20;1.00
13256;DHT22;37913;48.370;10.930;2022-07-29T00:40:21;23.20;1.00
13256;DHT22;37913;48.370;10.930;2022-07-29T00:42:49;23.20;99.90
13256;DHT22;37913;48.370;10.930;2022-07-29T00:45:17;23.20;99.90
13256;DHT22;37913;48.370;10.930;2022-07-29T00:47:44;23.10;99.90
13256;DHT22;37913;48.370;10.930;2022-07-29T00:50:12;23.10;99.90
13256;DHT22;37913;48.370;10.930;2022-07-29T00:52:41;23.10;99.90
13256;DHT22;37913;48.370;10.930;2022-07-29T00:55:11;23.10;99.90
13256;DHT22;37913;48.370;10.930;2022-07-29T00:57:38;23.10;99.90
13256;DHT22;37913;48.370;10.930;2022-07-29T01:00:08;23.00;1.00
13256;DHT22;37913;48.370;10.930;2022-07-29T01:02:35;23.00;1.00
13256;DHT22;37913;48.370;10.930;2022-07-29T01:05:02;23.00;1.00
13256;DHT22;37913;48.370;10.930;2022-07-29T01:07:30;23.00;1.00
13256;DHT22;37913;48.370;10.930;2022-07-29T01:09:59;23.00;1.00
13256;DHT22;37913;48.370;10.930;2022-07-29T01:12:30;23.00;67.10
13256;DHT22;37913;48.370;10.930;2022-07-29T01:14:59;22.90;99.90
13256;DHT22;37913;48.370;10.930;2022-07-29T01:17:30;22.90;99.90
13256;DHT22;37913;48.370;10.930;2022-07-29T01:20:02;22.90;99.90
13256;DHT22;37913;48.370;10.930;2022-07-29T01:22:37;22.90;1.00
13256;DHT22;37913;48.370;10.930;2022-07-29T01:25:26;22.90;1.00
13256;DHT22;37913;48.370;10.930;2022-07-29T01:28:19;22.90;1.00
13256;DHT22;37913;48.370;10.930;2022-07-29T01:30:51;22.90;1.00
13256;DHT22;37913;48.370;10.930;2022-07-29T01:33:22;22.80;1.00
13256;DHT22;37913;48.370;10.930;2022-07-29T01:36:13;22.80;1.00
13256;DHT22;37913;48.370;10.930;2022-07-29T01:38:44;22.80;1.00
13256;DHT22;37913;48.370;10.930;2022-07-29T01:41:16;22.80;1.00
13256;DHT22;37913;48.370;10.930;2022-07-29T01:43:47;22.80;1.00
13256;DHT22;37913;48.370;10.930;2022-07-29T01:46:21;22.70;8.60
13256;DHT22;37913;48.370;10.930;2022-07-29T01:48:55;22.70;1.00
13256;DHT22;37913;48.370;10.930;2022-07-29T01:51:35;22.70;24.70
13256;DHT22;37913;48.370;10.930;2022-07-29T01:54:10;22.70;38.00
13256;DHT22;37913;48.370;10.930;2022-07-29T01:56:39;22.70;1.00
13256;DHT22;37913;48.370;10.930;2022-07-29T01:59:08;22.70;21.70
13256;DHT22;37913;48.370;10.930;2022-07-29T02:01:39;22.60;1.00
13256;DHT22;37913;48.370;10.930;2022-07-29T02:04:09;22.60;85.70
13256;DHT22;37913;48.370;10.930;2022-07-29T02:06:38;22.60;35.90
13256;DHT22;37913;48.370;10.930;2022-07-29T02:09:08;22.60;99.90
13256;DHT22;37913;48.370;10.930;2022-07-29T02:11:35;22.60;73.80
13256;DHT22;37913;48.370;10.930;2022-07-29T02:14:04;22.60;99.90
13256;DHT22;37913;48.370;10.930;2022-07-29T02:16:33;22.50;1.00
13256;DHT22;37913;48.370;10.930;2022-07-29T02:21:39;22.50;78.10
13256;DHT22;37913;48.370;10.930;2022-07-29T02:24:07;22.50;1.00
13256;DHT22;37913;48.370;10.930;2022-07-29T02:26:35;22.50;20.70
13256;DHT22;37913;48.370;10.930;2022-07-29T02:29:03;22.40;1.00
13256;DHT22;37913;48.370;10.930;2022-07-29T02:31:32;22.50;92.20
13256;DHT22;37913;48.370;10.930;2022-07-29T02:34:00;22.40;1.00
13256;DHT22;37913;48.370;10.930;2022-07-29T02:36:29;22.30;79.40
13256;DHT22;37913;48.370;10.930;2022-07-29T02:38:59;22.30;28.30
13256;DHT22;37913;48.370;10.930;2022-07-29T02:41:30;22.20;37.20
13256;DHT22;37913;48.370;10.930;2022-07-29T02:44:04;22.20;1.00
13256;DHT22;37913;48.370;10.930;2022-07-29T02:46:33;22.20;1.00
13256;DHT22;37913;48.370;10.930;2022-07-29T02:49:06;22.20;1.00
13256;DHT22;37913;48.370;10.930;2022-07-29T02:51:41;22.20;1.00
13256;DHT22;37913;48.370;10.930;2022-07-29T02:54:19;22.10;52.50
13256;DHT22;37913;48.370;10.930;2022-07-29T02:56:48;22.10;99.90
13256;DHT22;37913;48.370;10.930;2022-07-29T02:59:23;22.00;99.90
13256;DHT22;37913;48.370;10.930;2022-07-29T03:01:52;22.00;99.90
13256;DHT22;37913;48.370;10.930;2022-07-29T03:04:22;22.00;92.40
13256;DHT22;37913;48.370;10.930;2022-07-29T03:06:51;22.00;61.50
13256;DHT22;37913;48.370;10.930;2022-07-29T03:09:21;21.90;99.90
13256;DHT22;37913;48.370;10.930;2022-07-29T03:11:48;21.90;99.90
13256;DHT22;37913;48.370;10.930;2022-07-29T03:14:17;21.90;99.90
13256;DHT22;37913;48.370;10.930;2022-07-29T03:16:44;21.90;99.90
13256;DHT22;37913;48.370;10.930;2022-07-29T03:19:12;21.90;99.90
13256;DHT22;37913;48.370;10.930;2022-07-29T03:21:39;21.90;99.90
13256;DHT22;37913;48.370;10.930;2022-07-29T03:24:06;21.90;99.90
13256;DHT22;37913;48.370;10.930;2022-07-29T03:26:35;21.80;1.00
13256;DHT22;37913;48.370;10.930;2022-07-29T03:29:02;21.80;99.90
13256;DHT22;37913;48.370;10.930;2022-07-29T03:31:28;21.80;99.90
13256;DHT22;37913;48.370;10.930;2022-07-29T03:33:55;21.80;99.90
13256;DHT22;37913;48.370;10.930;2022-07-29T03:36:23;21.80;99.90
13256;DHT22;37913;48.370;10.930;2022-07-29T03:38:50;21.70;99.90
13256;DHT22;37913;48.370;10.930;2022-07-29T03:41:18;21.70;99.90
13256;DHT22;37913;48.370;10.930;2022-07-29T03:43:49;21.70;99.90
13256;DHT22;37913;48.370;10.930;2022-07-29T03:46:17;21.70;99.90
13256;DHT22;37913;48.370;10.930;2022-07-29T03:48:52;21.60;99.90
13256;DHT22;37913;48.370;10.930;2022-07-29T03:51:19;21.60;1.00
13256;DHT22;37913;48.370;10.930;2022-07-29T03:53:47;21.60;1.00
13256;DHT22;37913;48.370;10.930;2022-07-29T03:56:16;21.60;1.00
13256;DHT22;37913;48.370;10.930;2022-07-29T03:58:44;21.60;1.00
13256;DHT22;37913;48.370;10.930;2022-07-29T04:01:12;21.60;1.00
13256;DHT22;37913;48.370;10.930;2022-07-29T04:03:40;21.50;1.00
13256;DHT22;37913;48.370;10.930;2022-07-29T04:06:15;21.50;99.90
13256;DHT22;37913;48.370;10.930;2022-07-29T04:08:42;21.50;99.90
13256;DHT22;37913;48.370;10.930;2022-07-29T04:11:09;21.50;99.90
13256;DHT22;37913;48.370;10.930;2022-07-29T04:13:35;21.50;99.90
13256;DHT22;37913;48.370;10.930;2022-07-29T04:16:03;21.50;99.90
13256;DHT22;37913;48.370;10.930;2022-07-29T04:18:30;21.50;99.90
13256;DHT22;37913;48.370;10.930;2022-07-29T04:20:56;21.50;99.90
13256;DHT22;37913;48.370;10.930;2022-07-29T04:23:28;21.50;99.90
13256;DHT22;37913;48.370;10.930;2022-07-29T04:25:57;21.40;99.90
13256;DHT22;37913;48.370;10.930;2022-07-29T04:28:25;21.40;99.90
13256;DHT22;37913;48.370;10.930;2022-07-29T04:30:52;21.40;99.90
13256;DHT22;37913;48.370;10.930;2022-07-29T04:33:19;21.40;99.90
13256;DHT22;37913;48.370;10.930;2022-07-29T04:35:46;21.50;99.90
13256;DHT22;37913;48.370;10.930;2022-07-29T04:38:13;21.40;99.90
13256;DHT22;37913;48.370;10.930;2022-07-29T04:40:41;21.40;99.90
13256;DHT22;37913;48.370;10.930;2022-07-29T04:43:08;21.40;99.90
13256;DHT22;37913;48.370;10.930;2022-07-29T04:45:35;21.50;99.90
13256;DHT22;37913;48.370;10.930;2022-07-29T04:48:02;21.60;99.90
13256;DHT22;37913;48.370;10.930;2022-07-29T04:50:29;21.60;88.20
13256;DHT22;37913;48.370;10.930;2022-07-29T04:52:56;21.70;1.00
13256;DHT22;37913;48.370;10.930;2022-07-29T04:55:23;21.70;3.90
13256;DHT22;37913;48.370;10.930;2022-07-29T04:57:51;21.70;99.90
13256;DHT22;37913;48.370;10.930;2022-07-29T05:00:18;21.80;1.00
13256;DHT22;37913;48.370;10.930;2022-07-29T05:02:45;21.80;1.00
13256;DHT22;37913;48.370;10.930;2022-07-29T05:05:12;21.90;1.00
13256;DHT22;37913;48.370;10.930;2022-07-29T05:07:39;21.90;1.00
13256;DHT22;37913;48.370;10.930;2022-07-29T05:10:07;22.00;99.90
13256;DHT22;37913;48.370;10.930;2022-07-29T05:12:35;22.10;1.00
13256;DHT22;37913;48.370;10.930;2022-07-29T05:15:04;21.60;99.90
13256;DHT22;37913;48.370;10.930;2022-07-29T05:17:31;22.20;99.90
13256;DHT22;37913;48.370;10.930;2022-07-29T05:19:59;22.20;9.20
13256;DHT22;37913;48.370;10.930;2022-07-29T05:22:26;22.20;1.00
13256;DHT22;37913;48.370;10.930;2022-07-29T05:24:53;22.30;1.00
13256;DHT22;37913;48.370;10.930;2022-07-29T05:27:20;22.30;1.00
13256;DHT22;37913;48.370;10.930;2022-07-29T05:29:47;22.50;1.00
13256;DHT22;37913;48.370;10.930;2022-07-29T05:32:15;22.50;1.00
13256;DHT22;37913;48.370;10.930;2022-07-29T05:34:42;22.60;99.90
13256;DHT22;37913;48.370;10.930;2022-07-29T05:37:09;22.70;99.90
13256;DHT22;37913;48.370;10.930;2022-07-29T05:39:36;22.80;99.90
13256;DHT22;37913;48.370;10.930;2022-07-29T05:42:04;22.90;99.90
13256;DHT22;37913;48.370;10.930;2022-07-29T05:44:36;23.00;1.00
13256;DHT22;37913;48.370;10.930;2022-07-29T05:47:03;23.00;99.90
13256;DHT22;37913;48.370;10.930;2022-07-29T05:49:32;23.10;1.00
13256;DHT22;37913;48.370;10.930;2022-07-29T05:52:00;23.20;99.90
13256;DHT22;37913;48.370;10.930;2022-07-29T05:54:32;22.30;99.90
13256;DHT22;37913;48.370;10.930;2022-07-29T05:57:18;23.40;1.00
13256;DHT22;37913;48.370;10.930;2022-07-29T05:59:53;23.50;1.00
13256;DHT22;37913;48.370;10.930;2022-07-29T06:02:26;23.50;99.90
13256;DHT22;37913;48.370;10.930;2022-07-29T06:05:07;23.50;1.00
13256;DHT22;37913;48.370;10.930;2022-07-29T06:07:53;23.50;1.00
13256;DHT22;37913;48.370;10.930;2022-07-29T06:10:23;23.50;99.90
13256;DHT22;37913;48.370;10.930;2022-07-29T06:12:59;23.50;99.90
13256;DHT22;37913;48.370;10.930;2022-07-29T06:15:31;23.60;1.00
13256;DHT22;37913;48.370;10.930;2022-07-29T06:18:06;23.70;99.90
13256;DHT22;37913;48.370;10.930;2022-07-29T06:20:44;23.70;1.00
13256;DHT22;37913;48.370;10.930;2022-07-29T06:23:21;23.70;1.00
13256;DHT22;37913;48.370;10.930;2022-07-29T06:26:03;23.80;1.00
13256;DHT22;37913;48.370;10.930;2022-07-29T06:28:32;23.90;1.00
13256;DHT22;37913;48.370;10.930;2022-07-29T06:31:10;24.00;1.00
13256;DHT22;37913;48.370;10.930;2022-07-29T06:33:38;24.20;1.00
13256;DHT22;37913;48.370;10.930;2022-07-29T06:36:08;24.30;1.00
13256;DHT22;37913;48.370;10.930;2022-07-29T06:38:35;24.40;99.90
13256;DHT22;37913;48.370;10.930;2022-07-29T06:41:03;24.40;76.50
13256;DHT22;37913;48.370;10.930;2022-07-29T06:43:32;24.50;1.00
13256;DHT22;37913;48.370;10.930;2022-07-29T06:46:02;24.50;1.00
13256;DHT22;37913;48.370;10.930;2022-07-29T06:48:29;24.50;99.90
13256;DHT22;37913;48.370;10.930;2022-07-29T06:50:56;24.50;26.30
13256;DHT22;37913;48.370;10.930;2022-07-29T06:53:24;24.60;47.20
13256;DHT22;37913;48.370;10.930;2022-07-29T06:55:51;24.60;1.00
13256;DHT22;37913;48.370;10.930;2022-07-29T06:58:18;24.60;99.90
13256;DHT22;37913;48.370;10.930;2022-07-29T07:00:46;24.60;99.90
13256;DHT22;37913;48.370;10.930;2022-07-29T07:03:13;24.60;99.90
13256;DHT22;37913;48.370;10.930;2022-07-29T07:05:40;24.70;99.90
13256;DHT22;37913;48.370;10.930;2022-07-29T07:08:07;24.70;99.90
13256;DHT22;37913;48.370;10.930;2022-07-29T07:10:36;24.80;31.40
13256;DHT22;37913;48.370;10.930;2022-07-29T07:13:05;24.90;1.00
13256;DHT22;37913;48.370;10.930;2022-07-29T07:15:32;24.90;1.00
13256;DHT22;37913;48.370;10.930;2022-07-29T07:17:59;24.90;1.00
13256;DHT22;37913;48.370;10.930;2022-07-29T07:20:26;25.00;1.00
13256;DHT22;37913;48.370;10.930;2022-07-29T07:22:53;25.00;1.00
13256;DHT22;37913;48.370;10.930;2022-07-29T07:25:20;25.10;99.90
13256;DHT22;37913;48.370;10.930;2022-07-29T07:27:48;25.20;99.90
13256;DHT22;37913;48.370;10.930;2022-07-29T07:30:15;25.30;1.00
13256;DHT22;37913;48.370;10.930;2022-07-29T07:32:42;26.40;1.00
13256;DHT22;37913;48.370;10.930;2022-07-29T07:35:10;27.50;99.90
13256;DHT22;37913;48.370;10.930;2022-07-29T07:37:38;27.80;99.90
13256;DHT22;37913;48.370;10.930;2022-07-29T07:40:07;28.80;99.90
13256;DHT22;37913;48.370;10.930;2022-07-29T07:42:34;30.90;99.90
13256;DHT22;37913;48.370;10.930;2022-07-29T07:45:03;32.20;99.90
13256;DHT22;37913;48.370;10.930;2022-07-29T07:47:31;33.30;99.90
13256;DHT22;37913;48.370;10.930;2022-07-29T07:49:58;35.00;99.90
13256;DHT22;37913;48.370;10.930;2022-07-29T07:52:25;36.00;99.90
13256;DHT22;37913;48.370;10.930;2022-07-29T07:54:52;37.00;99.90
13256;DHT22;37913;48.370;10.930;2022-07-29T07:57:19;34.50;99.90
13256;DHT22;37913;48.370;10.930;2022-07-29T07:59:47;35.20;99.90
13256;DHT22;37913;48.370;10.930;2022-07-29T08:02:16;33.20;99.90
13256;DHT22;37913;48.370;10.930;2022-07-29T08:04:43;33.60;99.90
13256;DHT22;37913;48.370;10.930;2022-07-29T08:07:10;35.10;99.90
13256;DHT22;37913;48.370;10.930;2022-07-29T08:09:38;36.20;99.90
13256;DHT22;37913;48.370;10.930;2022-07-29T08:12:05;34.40;99.90
13256;DHT22;37913;48.370;10.930;2022-07-29T08:14:32;32.40;96.70
13256;DHT22;37913;48.370;10.930;2022-07-29T08:16:59;31.30;97.10
13256;DHT22;37913;48.370;10.930;2022-07-29T08:19:28;29.60;96.80
13256;DHT22;37913;48.370;10.930;2022-07-29T08:21:55;28.70;99.90
13256;DHT22;37913;48.370;10.930;2022-07-29T08:24:22;28.60;99.90
13256;DHT22;37913;48.370;10.930;2022-07-29T08:27:07;28.80;99.90
13256;DHT22;37913;48.370;10.930;2022-07-29T08:29:34;28.90;99.90
13256;DHT22;37913;48.370;10.930;2022-07-29T08:32:01;30.10;99.90
13256;DHT22;37913;48.370;10.930;2022-07-29T08:34:29;30.80;99.90
13256;DHT22;37913;48.370;10.930;2022-07-29T08:36:57;31.20;99.90
13256;DHT22;37913;48.370;10.930;2022-07-29T08:39:24;30.50;99.90
13256;DHT22;37913;48.370;10.930;2022-07-29T08:41:52;29.30;99.90
13256;DHT22;37913;48.370;10.930;2022-07-29T08:44:21;28.80;99.90
13256;DHT22;37913;48.370;10.930;2022-07-29T08:46:48;28.10;99.90
13256;DHT22;37913;48.370;10.930;2022-07-29T08:49:16;27.60;99.90
13256;DHT22;37913;48.370;10.930;2022-07-29T08:51:44;27.50;99.90
13256;DHT22;37913;48.370;10.930;2022-07-29T08:54:16;27.40;99.90
13256;DHT22;37913;48.370;10.930;2022-07-29T08:56:44;27.40;99.90
13256;DHT22;37913;48.370;10.930;2022-07-29T08:59:13;27.20;99.90
13256;DHT22;37913;48.370;10.930;2022-07-29T09:01:43;27.90;99.90
13256;DHT22;37913;48.370;10.930;2022-07-29T09:04:11;29.20;99.90
13256;DHT22;37913;48.370;10.930;2022-07-29T09:06:44;29.10;99.90
13256;DHT22;37913;48.370;10.930;2022-07-29T09:09:13;29.40;99.90
13256;DHT22;37913;48.370;10.930;2022-07-29T09:11:41;30.10;99.90
13256;DHT22;37913;48.370;10.930;2022-07-29T09:14:11;30.20;99.90
13256;DHT22;37913;48.370;10.930;2022-07-29T09:16:53;30.50;99.90
13256;DHT22;37913;48.370;10.930;2022-07-29T09:19:25;31.70;99.90
13256;DHT22;37913;48.370;10.930;2022-07-29T09:21:55;30.80;99.90
13256;DHT22;37913;48.370;10.930;2022-07-29T09:24:40;31.00;99.90
13256;DHT22;37913;48.370;10.930;2022-07-29T09:27:21;29.40;99.90
13256;DHT22;37913;48.370;10.930;2022-07-29T09:29:55;30.20;99.90
13256;DHT22;37913;48.370;10.930;2022-07-29T09:32:23;30.50;99.90
13256;DHT22;37913;48.370;10.930;2022-07-29T09:35:18;30.70;99.90
13256;DHT22;37913;48.370;10.930;2022-07-29T09:37:47;30.10;99.90
13256;DHT22;37913;48.370;10.930;2022-07-29T09:40:16;29.50;99.90
13256;DHT22;37913;48.370;10.930;2022-07-29T09:42:43;29.20;99.90
13256;DHT22;37913;48.370;10.930;2022-07-29T09:45:11;30.60;99.90
13256;DHT22;37913;48.370;10.930;2022-07-29T09:47:42;33.50;99.90
13256;DHT22;37913;48.370;10.930;2022-07-29T09:50:16;35.00;99.90
13256;DHT22;37913;48.370;10.930;2022-07-29T09:52:49;36.70;99.90
13256;DHT22;37913;48.370;10.930;2022-07-29T09:55:17;38.60;99.90
13256;DHT22;37913;48.370;10.930;2022-07-29T09:57:46;38.00;92.60
13256;DHT22;37913;48.370;10.930;2022-07-29T10:00:14;38.10;89.80
13256;DHT22;37913;48.370;10.930;2022-07-29T10:02:42;39.40;84.40
13256;DHT22;37913;48.370;10.930;2022-07-29T10:05:20;41.00;81.80
13256;DHT22;37913;48.370;10.930;2022-07-29T10:07:50;42.80;65.10
13256;DHT22;37913;48.370;10.930;2022-07-29T10:10:22;39.40;40.40
13256;DHT22;37913;48.370;10.930;2022-07-29T10:12:54;39.60;51.10
13256;DHT22;37913;48.370;10.930;2022-07-29T10:15:22;40.60;45.20
13256;DHT22;37913;48.370;10.930;2022-07-29T10:17:51;38.50;31.30
13256;DHT22;37913;48.370;10.930;2022-07-29T10:20:19;37.50;29.90
13256;DHT22;37913;48.370;10.930;2022-07-29T10:22:49;38.80;35.80
13256;DHT22;37913;48.370;10.930;2022-07-29T10:25:17;39.50;34.00
13256;DHT22;37913;48.370;10.930;2022-07-29T10:27:44;36.70;23.80
13256;DHT22;37913;48.370;10.930;2022-07-29T10:30:14;36.20;20.60
13256;DHT22;37913;48.370;10.930;2022-07-29T10:33:12;35.70;19.40
13256;DHT22;37913;48.370;10.930;2022-07-29T10:36:05;34.40;19.30
13256;DHT22;37913;48.370;10.930;2022-07-29T10:38:53;35.30;23.40
13256;DHT22;37913;48.370;10.930;2022-07-29T10:41:43;37.40;26.60
13256;DHT22;37913;48.370;10.930;2022-07-29T10:44:17;36.60;26.00
13256;DHT22;37913;48.370;10.930;2022-07-29T10:46:44;37.30;27.00
13256;DHT22;37913;48.370;10.930;2022-07-29T10:49:12;38.00;30.40
13256;DHT22;37913;48.370;10.930;2022-07-29T10:52:01;39.20;30.20
13256;DHT22;37913;48.370;10.930;2022-07-29T10:54:44;40.70;31.90
13256;DHT22;37913;48.370;10.930;2022-07-29T10:57:20;41.80;30.90
13256;DHT22;37913;48.370;10.930;2022-07-29T10:59:48;43.30;30.00
13256;DHT22;37913;48.370;10.930;2022-07-29T11:02:41;44.70;21.60
13256;DHT22;37913;48.370;10.930;2022-07-29T11:05:10;45.70;20.40
13256;DHT22;37913;48.370;10.930;2022-07-29T11:07:39;44.30;6.80
13256;DHT22;37913;48.370;10.930;2022-07-29T11:10:21;44.20;4.30
13256;DHT22;37913;48.370;10.930;2022-07-29T11:12:49;46.20;9.00
13256;DHT22;37913;48.370;10.930;2022-07-29T11:15:18;46.60;4.80
13256;DHT22;37913;48.370;10.930;2022-07-29T11:18:07;45.90;1.00
13256;DHT22;37913;48.370;10.930;2022-07-29T11:20:37;46.10;1.00
13256;DHT22;37913;48.370;10.930;2022-07-29T11:23:22;46.30;1.00
13256;DHT22;37913;48.370;10.930;2022-07-29T11:26:19;42.70;1.00
13256;DHT22;37913;48.370;10.930;2022-07-29T11:28:54;43.50;1.00
13256;DHT22;37913;48.370;10.930;2022-07-29T11:31:33;41.00;1.00
13256;DHT22;37913;48.370;10.930;2022-07-29T11:34:17;41.20;1.00
13256;DHT22;37913;48.370;10.930;2022-07-29T11:37:19;44.10;1.00
13256;DHT22;37913;48.370;10.930;2022-07-29T11:42:50;44.70;1.00
13256;DHT22;37913;48.370;10.930;2022-07-29T11:45:22;45.60;1.00
13256;DHT22;37913;48.370;10.930;2022-07-29T11:47:56;47.10;1.00
13256;DHT22;37913;48.370;10.930;2022-07-29T11:50:30;45.50;1.00
13256;DHT22;37913;48.370;10.930;2022-07-29T11:52:58;40.90;1.00
13256;DHT22;37913;48.370;10.930;2022-07-29T11:55:25;39.60;1.00
13256;DHT22;37913;48.370;10.930;2022-07-29T11:57:56;38.00;1.00
13256;DHT22;37913;48.370;10.930;2022-07-29T12:00:27;35.80;1.00
13256;DHT22;37913;48.370;10.930;2022-07-29T12:02:55;34.20;1.00
13256;DHT22;37913;48.370;10.930;2022-07-29T12:05:33;33.90;1.00
13256;DHT22;37913;48.370;10.930;2022-07-29T12:08:09;35.20;1.00
13256;DHT22;37913;48.370;10.930;2022-07-29T12:10:36;38.20;1.00
13256;DHT22;37913;48.370;10.930;2022-07-29T12:13:05;39.50;1.00
13256;DHT22;37913;48.370;10.930;2022-07-29T12:15:32;39.60;1.00
13256;DHT22;37913;48.370;10.930;2022-07-29T12:18:16;37.60;1.00
13256;DHT22;37913;48.370;10.930;2022-07-29T12:20:44;34.20;1.00
13256;DHT22;37913;48.370;10.930;2022-07-29T12:23:11;32.50;1.00
13256;DHT22;37913;48.370;10.930;2022-07-29T12:25:40;32.10;1.00
13256;DHT22;37913;48.370;10.930;2022-07-29T12:28:10;32.00;1.00
13256;DHT22;37913;48.370;10.930;2022-07-29T12:30:40;31.50;1.00
13256;DHT22;37913;48.370;10.930;2022-07-29T12:33:19;32.10;1.00
13256;DHT22;37913;48.370;10.930;2022-07-29T12:35:48;32.00;1.00
13256;DHT22;37913;48.370;10.930;2022-07-29T12:38:15;32.10;1.00
13256;DHT22;37913;48.370;10.930;2022-07-29T12:40:44;32.00;1.00
13256;DHT22;37913;48.370;10.930;2022-07-29T12:43:15;32.00;1.00
13256;DHT22;37913;48.370;10.930;2022-07-29T12:45:44;31.60;1.00
13256;DHT22;37913;48.370;10.930;2022-07-29T12:48:11;31.20;1.00
13256;DHT22;37913;48.370;10.930;2022-07-29T12:50:54;30.60;1.00
13256;DHT22;37913;48.370;10.930;2022-07-29T12:53:21;30.20;1.00
13256;DHT22;37913;48.370;10.930;2022-07-29T12:55:49;29.60;1.00
13256;DHT22;37913;48.370;10.930;2022-07-29T12:58:29;29.20;1.00
13256;DHT22;37913;48.370;10.930;2022-07-29T13:01:07;28.80;1.00
13256;DHT22;37913;48.370;10.930;2022-07-29T13:03:52;28.70;1.00
13256;DHT22;37913;48.370;10.930;2022-07-29T13:06:37;28.30;1.00
13256;DHT22;37913;48.370;10.930;2022-07-29T13:09:10;27.30;1.00
13256;DHT22;37913;48.370;10.930;2022-07-29T13:11:39;27.00;1.00
13256;DHT22;37913;48.370;10.930;2022-07-29T13:14:10;27.00;1.00
13256;DHT22;37913;48.370;10.930;2022-07-29T13:17:01;26.90;1.00
13256;DHT22;37913;48.370;10.930;2022-07-29T13:19:36;26.70;1.00
13256;DHT22;37913;48.370;10.930;2022-07-29T13:22:06;26.60;1.00
13256;DHT22;37913;48.370;10.930;2022-07-29T13:24:33;26.30;1.00
13256;DHT22;37913;48.370;10.930;2022-07-29T13:27:00;26.20;1.00
13256;DHT22;37913;48.370;10.930;2022-07-29T13:29:29;26.30;1.00
13256;DHT22;37913;48.370;10.930;2022-07-29T13:31:56;26.40;1.00
13256;DHT22;37913;48.370;10.930;2022-07-29T13:34:23;26.40;1.00
13256;DHT22;37913;48.370;10.930;2022-07-29T13:36:50;26.50;1.00
13256;DHT22;37913;48.370;10.930;2022-07-29T13:39:17;26.60;1.00
13256;DHT22;37913;48.370;10.930;2022-07-29T13:41:44;26.70;1.00
13256;DHT22;37913;48.370;10.930;2022-07-29T13:44:11;26.70;1.00
13256;DHT22;37913;48.370;10.930;2022-07-29T13:46:39;26.90;1.00
13256;DHT22;37913;48.370;10.930;2022-07-29T13:49:06;27.00;1.00
13256;DHT22;37913;48.370;10.930;2022-07-29T13:51:33;27.30;1.00
13256;DHT22;37913;48.370;10.930;2022-07-29T13:54:00;27.60;1.00
13256;DHT22;37913;48.370;10.930;2022-07-29T13:56:27;27.70;1.00
13256;DHT22;37913;48.370;10.930;2022-07-29T13:58:54;27.40;1.00
13256;DHT22;37913;48.370;10.930;2022-07-29T14:01:22;27.70;1.00
13256;DHT22;37913;48.370;10.930;2022-07-29T14:03:50;28.20;1.00
13256;DHT22;37913;48.370;10.930;2022-07-29T14:06:17;27.80;1.00
13256;DHT22;37913;48.370;10.930;2022-07-29T14:08:44;28.20;1.00
13256;DHT22;37913;48.370;10.930;2022-07-29T14:11:11;28.50;1.00
13256;DHT22;37913;48.370;10.930;2022-07-29T14:13:38;28.80;1.00
13256;DHT22;37913;48.370;10.930;2022-07-29T14:16:07;29.10;1.00
13256;DHT22;37913;48.370;10.930;2022-07-29T14:18:34;29.40;1.00
13256;DHT22;37913;48.370;10.930;2022-07-29T14:21:02;29.80;1.00
13256;DHT22;37913;48.370;10.930;2022-07-29T14:23:29;30.10;1.00
13256;DHT22;37913;48.370;10.930;2022-07-29T14:25:56;30.10;1.00
13256;DHT22;37913;48.370;10.930;2022-07-29T14:28:23;30.30;1.00
13256;DHT22;37913;48.370;10.930;2022-07-29T14:30:51;30.30;1.00
13256;DHT22;37913;48.370;10.930;2022-07-29T14:33:19;30.70;1.00
13256;DHT22;37913;48.370;10.930;2022-07-29T14:35:46;30.30;1.00
13256;DHT22;37913;48.370;10.930;2022-07-29T14:38:15;30.20;1.00
13256;DHT22;37913;48.370;10.930;2022-07-29T14:40:42;30.40;1.00
13256;DHT22;37913;48.370;10.930;2022-07-29T14:43:08;30.40;1.00
13256;DHT22;37913;48.370;10.930;2022-07-29T14:45:36;30.20;1.00
13256;DHT22;37913;48.370;10.930;2022-07-29T14:48:03;30.10;1.00
13256;DHT22;37913;48.370;10.930;2022-07-29T14:50:30;29.70;1.00
13256;DHT22;37913;48.370;10.930;2022-07-29T14:52:57;29.50;1.00
13256;DHT22;37913;48.370;10.930;2022-07-29T14:55:26;28.40;1.00
13256;DHT22;37913;48.370;10.930;2022-07-29T14:57:53;27.80;1.00
13256;DHT22;37913;48.370;10.930;2022-07-29T15:00:21;27.60;1.00
13256;DHT22;37913;48.370;10.930;2022-07-29T15:02:49;27.60;1.00
13256;DHT22;37913;48.370;10.930;2022-07-29T15:05:16;27.40;1.00
13256;DHT22;37913;48.370;10.930;2022-07-29T15:07:43;27.80;1.00
13256;DHT22;37913;48.370;10.930;2022-07-29T15:10:10;28.20;1.00
13256;DHT22;37913;48.370;10.930;2022-07-29T15:12:38;28.50;1.00
13256;DHT22;37913;48.370;10.930;2022-07-29T15:15:06;28.90;1.00
13256;DHT22;37913;48.370;10.930;2022-07-29T15:17:34;29.00;1.00
13256;DHT22;37913;48.370;10.930;2022-07-29T15:20:01;29.10;1.00
13256;DHT22;37913;48.370;10.930;2022-07-29T15:22:28;28.80;1.00
13256;DHT22;37913;48.370;10.930;2022-07-29T15:24:55;28.50;1.00
13256;DHT22;37913;48.370;10.930;2022-07-29T15:27:22;28.30;1.00
13256;DHT22;37913;48.370;10.930;2022-07-29T15:29:52;28.40;1.00
13256;DHT22;37913;48.370;10.930;2022-07-29T15:32:20;28.10;1.00
13256;DHT22;37913;48.370;10.930;2022-07-29T15:34:47;28.20;1.00
13256;DHT22;37913;48.370;10.930;2022-07-29T15:37:14;27.90;1.00
13256;DHT22;37913;48.370;10.930;2022-07-29T15:39:41;28.00;1.00
13256;DHT22;37913;48.370;10.930;2022-07-29T15:42:08;27.50;1.00
13256;DHT22;37913;48.370;10.930;2022-07-29T15:44:36;27.00;1.00
13256;DHT22;37913;48.370;10.930;2022-07-29T15:47:04;26.30;1.00